Dhaka/Tezgaon, Bangladesh
Current Conditions -  °F | °C
As of 12:20 AM on Friday 24 Oct 2014 (Local Time) from VGHS Reporting Station
Haze Haze  
Wind Chill: 79°   Ceiling: Unl
Heat Index: 82°   Visibility: 2.5mi
Dew Point: 72°   Wind: 0mph
Humidity: 78%   Direction: NA
Pressure: 29.85"   Gusts: NA
Location:  23.45°N, 90.22°E
Report Text: VGHS 231820Z 00000KT 4000 HZ SCT100 26/22 Q1011 NOSIG
Loading
Personal Weather Stations






























Interactive Weather Map
Tropical Storm Tracking
New forecast layout! Learn more

10-Day Weather Forecast

Advertisements
Track Severe Weather on mobile